Time;durP1;ratioP1;P1;durP2;ratioP2;P2;SDS_P1;SDS_P2;PMS_P1;PMS_P2;Temp;Humidity;BMP_temperature;BMP_pressure;BME280_temperature;BME280_humidity;BME280_pressure;Samples;Min_cycle;Max_cycle;Signal;HPM_P1;HPM_P2
2021/12/18 00:02:52;;;;;;;9.98;4.75;;;;;;;1.33;100.00;101021.53;6295262;28;20033;-72
2021/12/18 00:05:53;;;;;;;13.85;5.55;;;;;;;1.32;100.00;101020.69;6295006;28;20525;-73
2021/12/18 00:08:55;;;;;;;14.52;6.38;;;;;;;1.36;100.00;101026.63;6263716;28;20135;-72
2021/12/18 00:11:56;;;;;;;12.13;5.57;;;;;;;1.28;100.00;101033.56;6300654;28;20067;-72
2021/12/18 00:14:57;;;;;;;15.40;6.43;;;;;;;1.24;100.00;101024.19;6281895;28;20119;-72
2021/12/18 00:17:58;;;;;;;11.65;5.55;;;;;;;1.26;100.00;101019.88;6274731;28;20043;-73
2021/12/18 00:20:59;;;;;;;14.00;5.80;;;;;;;1.22;100.00;101033.63;6298700;28;20044;-73
2021/12/18 00:24:00;;;;;;;11.70;6.07;;;;;;;1.17;100.00;101042.22;6281890;28;20048;-72
2021/12/18 00:27:00;;;;;;;10.45;5.63;;;;;;;1.14;100.00;101029.38;6284449;28;20041;-72
2021/12/18 00:30:06;;;;;;;7.32;4.28;;;;;;;1.23;100.00;101023.28;6273636;28;20534;-72
2021/12/18 00:33:07;;;;;;;10.40;4.20;;;;;;;1.20;100.00;101038.75;6274637;28;20041;-72
2021/12/18 00:36:08;;;;;;;10.18;4.57;;;;;;;1.23;100.00;101027.59;6256947;28;20060;-72
2021/12/18 00:39:09;;;;;;;14.85;4.97;;;;;;;1.24;100.00;101030.16;6256666;28;20041;-73
2021/12/18 00:42:37;;;;;;;9.15;3.92;;;;;;;1.25;100.00;101036.16;6256804;28;20055;-73
2021/12/18 00:45:38;;;;;;;11.82;4.85;;;;;;;1.24;100.00;101037.03;6260402;28;20051;-72
2021/12/18 00:48:39;;;;;;;10.32;4.60;;;;;;;1.20;100.00;101033.63;6273091;28;20396;-73
2021/12/18 00:51:40;;;;;;;9.50;4.50;;;;;;;1.25;100.00;101034.41;6273081;28;20123;-72
2021/12/18 00:54:41;;;;;;;8.73;4.18;;;;;;;1.34;100.00;101036.94;6256569;28;20079;-72
2021/12/18 00:57:42;;;;;;;9.85;3.80;;;;;;;1.33;100.00;101032.66;6274097;28;20045;-72
2021/12/18 01:00:44;;;;;;;9.35;4.32;;;;;;;1.28;100.00;101042.13;6273110;28;20124;-73
2021/12/18 01:03:47;;;;;;;13.93;3.92;;;;;;;1.40;100.00;101042.03;6272823;28;20048;-72
2021/12/18 01:06:48;;;;;;;9.57;4.03;;;;;;;1.51;100.00;101053.97;6272871;28;20400;-73
2021/12/18 01:13:00;;;;;;;7.43;3.70;;;;;;;1.53;100.00;101054.81;6273836;28;20488;-73
2021/12/18 01:16:13;;;;;;;8.52;3.97;;;;;;;1.48;100.00;101056.56;6256242;28;20049;-73
2021/12/18 01:25:41;;;;;;;11.88;4.03;;;;;;;1.57;100.00;101061.63;6297230;28;20037;-73
2021/12/18 01:28:41;;;;;;;7.53;4.20;;;;;;;1.55;100.00;101074.50;6298881;28;20040;-72
2021/12/18 01:31:42;;;;;;;6.68;3.75;;;;;;;1.65;100.00;101077.00;6295511;28;20047;-73
2021/12/18 01:34:44;;;;;;;7.57;3.47;;;;;;;1.75;100.00;101076.94;6274050;28;20045;-73
2021/12/18 01:37:46;;;;;;;10.18;3.72;;;;;;;1.67;100.00;101076.13;6288508;28;20406;-73
2021/12/18 01:40:47;;;;;;;4.93;3.27;;;;;;;1.65;100.00;101080.44;6297530;28;20049;-73
2021/12/18 01:53:49;;;;;;;9.63;3.92;;;;;;;1.25;100.00;101085.84;6298266;28;20064;-73
2021/12/18 01:56:50;;;;;;;7.25;4.07;;;;;;;1.19;100.00;101066.19;6289010;28;20045;-73
2021/12/18 01:59:51;;;;;;;11.80;4.60;;;;;;;1.24;100.00;101079.00;6272941;28;20098;-74
2021/12/18 02:02:52;;;;;;;8.68;4.18;;;;;;;1.17;100.00;101077.31;6272141;28;20040;-72
2021/12/18 02:05:53;;;;;;;7.05;3.47;;;;;;;1.28;100.00;101067.00;6272095;28;20037;-72
2021/12/18 02:08:54;;;;;;;11.10;3.97;;;;;;;1.28;100.00;101067.84;6271897;28;20052;-73
2021/12/18 02:11:55;;;;;;;9.73;4.70;;;;;;;1.30;100.00;101062.69;6254929;28;20128;-73
2021/12/18 02:21:23;;;;;;;7.10;3.45;;;;;;;1.18;100.00;101069.63;6297318;28;20040;-72
2021/12/18 02:24:27;;;;;;;7.32;3.38;;;;;;;1.22;100.00;101069.59;6297189;28;20075;-73
2021/12/18 02:27:27;;;;;;;5.20;3.20;;;;;;;1.20;100.00;101070.47;6297517;28;20047;-73
2021/12/18 02:30:31;;;;;;;6.55;3.17;;;;;;;1.16;100.00;101076.47;6297564;28;20407;-73
2021/12/18 02:33:32;;;;;;;6.05;3.38;;;;;;;1.14;100.00;101073.06;6296759;28;20044;-73
2021/12/18 02:36:33;;;;;;;3.95;2.53;;;;;;;1.20;100.00;101080.75;6296138;28;20415;-73
2021/12/18 02:42:55;;;;;;;7.03;2.72;;;;;;;1.43;100.00;101084.88;6296508;28;20404;-73
2021/12/18 02:45:59;;;;;;;3.47;2.22;;;;;;;1.49;100.00;101087.41;6297267;28;20039;-73
2021/12/18 02:49:11;;;;;;;7.97;2.92;;;;;;;1.58;100.00;101082.19;6297327;28;20049;-73
2021/12/18 02:52:12;;;;;;;7.45;2.70;;;;;;;1.67;100.00;101080.41;6296005;28;20352;-72
2021/12/18 02:55:13;;;;;;;7.82;2.45;;;;;;;1.66;100.00;101074.41;6262833;28;20501;-73
2021/12/18 02:58:14;;;;;;;6.10;2.55;;;;;;;1.77;100.00;101079.47;6279131;28;20044;-72
2021/12/18 03:01:18;;;;;;;3.42;1.88;;;;;;;1.78;100.00;101079.47;6297000;28;20482;-72
2021/12/18 03:04:22;;;;;;;4.80;1.73;;;;;;;1.98;100.00;101078.44;6295970;28;20048;-72
2021/12/18 03:07:25;;;;;;;3.22;2.08;;;;;;;1.87;100.00;101091.41;6295694;28;20040;-72
2021/12/18 03:23:49;;;;;;;5.32;2.00;;;;;;;1.84;100.00;101100.88;6271870;28;20103;-72
2021/12/18 03:26:50;;;;;;;6.38;2.53;;;;;;;1.98;98.73;101104.19;6254630;28;20041;-73
2021/12/18 03:29:51;;;;;;;6.78;2.20;;;;;;;1.84;99.32;101114.59;6253836;28;20136;-73
2021/12/18 03:32:53;;;;;;;8.70;1.75;;;;;;;1.92;98.02;101117.13;6270212;28;20414;-72
2021/12/18 03:35:55;;;;;;;7.60;2.35;;;;;;;2.00;96.41;101112.75;6271153;28;20064;-73
2021/12/18 03:38:56;;;;;;;4.30;1.83;;;;;;;1.86;97.46;101102.56;6270374;28;20111;-73
2021/12/18 03:41:57;;;;;;;4.60;1.90;;;;;;;1.97;95.76;101113.63;6271846;28;20475;-73
2021/12/18 03:44:58;;;;;;;3.67;2.00;;;;;;;1.91;95.08;101103.38;6274370;28;20060;-72
2021/12/18 03:47:59;;;;;;;4.45;2.05;;;;;;;2.03;94.51;101104.16;6294500;28;20041;-72
2021/12/18 03:51:00;;;;;;;5.22;2.20;;;;;;;2.00;94.16;101123.91;6301282;28;20048;-73
2021/12/18 03:54:02;;;;;;;5.25;2.28;;;;;;;2.10;92.82;101119.53;6301105;28;20379;-73
2021/12/18 03:57:03;;;;;;;4.97;2.20;;;;;;;2.13;92.20;101123.78;6299932;28;20044;-73
2021/12/18 04:00:08;;;;;;;3.80;1.80;;;;;;;2.11;92.39;101110.94;6300977;28;20036;-73
2021/12/18 04:03:10;;;;;;;4.32;1.90;;;;;;;2.17;91.67;101125.47;6299631;28;20078;-73
2021/12/18 04:06:11;;;;;;;3.97;1.73;;;;;;;2.07;92.12;101123.84;6300878;28;20128;-73
2021/12/18 04:09:12;;;;;;;4.30;2.03;;;;;;;2.04;91.58;101124.75;6301140;28;20040;-73
2021/12/18 04:12:13;;;;;;;4.63;1.65;;;;;;;2.04;92.05;101114.44;6300749;28;20052;-72
2021/12/18 04:15:14;;;;;;;3.70;2.10;;;;;;;2.06;91.11;101104.97;6299677;28;20131;-72
2021/12/18 04:18:15;;;;;;;3.45;2.00;;;;;;;2.03;90.86;101105.00;6299407;28;20402;-73
2021/12/18 04:21:16;;;;;;;6.70;2.22;;;;;;;2.03;91.04;101120.44;6299521;28;20417;-72
2021/12/18 04:24:17;;;;;;;2.92;1.75;;;;;;;2.11;90.51;101117.81;6282540;28;20051;-72
2021/12/18 04:27:18;;;;;;;6.97;2.20;;;;;;;1.99;90.80;101131.63;6282599;28;20048;-72
2021/12/18 04:30:18;;;;;;;5.53;2.00;;;;;;;2.09;88.90;101133.25;6282575;28;20071;-72
2021/12/18 04:33:19;;;;;;;5.53;2.00;;;;;;;2.04;89.57;101142.75;6282637;28;20094;-73
2021/12/18 04:36:21;;;;;;;3.13;1.52;;;;;;;1.97;89.56;101152.22;6300278;28;20048;-73
2021/12/18 04:39:22;;;;;;;5.00;1.77;;;;;;;1.99;89.70;101152.22;6300195;28;20039;-72
2021/12/18 04:42:23;;;;;;;4.43;1.85;;;;;;;1.90;89.88;101160.88;6298656;28;20036;-72
2021/12/18 04:45:24;;;;;;;3.50;1.70;;;;;;;1.89;90.38;101151.44;6298677;28;20044;-73
2021/12/18 04:48:25;;;;;;;2.80;1.33;;;;;;;1.84;88.99;101158.34;6298458;28;20135;-72
2021/12/18 04:51:26;;;;;;;10.60;6.07;;;;;;;1.89;89.41;101176.31;6298118;28;20051;-73
2021/12/18 04:54:27;;;;;;;19.73;12.43;;;;;;;1.79;89.55;101168.69;6297991;28;20056;-72
2021/12/18 04:57:28;;;;;;;18.13;9.40;;;;;;;1.74;89.32;101175.56;6298595;28;20056;-73
2021/12/18 05:00:39;;;;;;;2.90;1.80;;;;;;;1.84;87.57;101183.25;6299325;28;20132;-74
2021/12/18 05:03:41;;;;;;;3.45;1.67;;;;;;;1.83;88.42;101192.66;6299670;28;20139;-73
2021/12/18 05:06:45;;;;;;;2.15;1.20;;;;;;;1.80;87.63;101184.97;6299740;28;20043;-72
2021/12/18 05:09:46;;;;;;;6.00;1.90;;;;;;;2.00;86.60;101195.13;6299283;28;20139;-72
2021/12/18 05:12:46;;;;;;;8.07;3.67;;;;;;;2.05;87.34;101197.66;6299517;28;20051;-72
2021/12/18 05:15:47;;;;;;;44.42;19.90;;;;;;;1.96;87.73;101196.03;6298131;28;20094;-72
2021/12/18 05:18:48;;;;;;;7.57;2.70;;;;;;;1.98;87.00;101194.28;6298003;28;20353;-73
2021/12/18 05:21:49;;;;;;;2.35;1.38;;;;;;;1.88;87.42;101190.06;6299211;28;20036;-72
2021/12/18 05:24:49;;;;;;;6.90;2.90;;;;;;;2.01;87.46;101196.81;6299116;28;20040;-72
2021/12/18 05:27:50;;;;;;;7.45;2.67;;;;;;;1.90;88.03;101196.91;6281287;28;20041;-72
2021/12/18 05:30:51;;;;;;;34.42;14.75;;;;;;;1.99;88.03;101201.13;6298880;28;20918;-72
2021/12/18 05:33:57;;;;;;;4.90;2.80;;;;;;;2.07;87.73;101196.78;6299042;28;20055;-72
2021/12/18 05:39:59;;;;;;;6.40;1.85;;;;;;;1.94;88.38;101205.47;6298601;28;20471;-72
2021/12/18 05:43:00;;;;;;;5.05;2.53;;;;;;;2.07;87.84;101216.53;6297605;28;20048;-73
2021/12/18 05:46:01;;;;;;;5.90;2.17;;;;;;;2.04;88.42;101220.00;6298342;28;20040;-72
2021/12/18 05:49:03;;;;;;;3.08;1.83;;;;;;;1.88;89.07;101220.97;6298357;28;20047;-73
2021/12/18 05:52:06;;;;;;;9.13;2.60;;;;;;;1.99;89.24;101229.44;6314165;28;20063;-72
2021/12/18 05:55:07;;;;;;;34.05;14.07;;;;;;;1.97;88.96;101236.31;6297304;28;20044;-73
2021/12/18 05:58:08;;;;;;;20.83;9.65;;;;;;;1.96;88.55;101235.47;6298148;28;20548;-72
2021/12/18 06:01:13;;;;;;;5.68;2.45;;;;;;;1.95;89.25;101235.47;6296956;28;20052;-72
2021/12/18 06:04:14;;;;;;;6.72;2.10;;;;;;;2.03;88.90;101236.28;6298112;28;20098;-73
2021/12/18 06:07:43;;;;;;;3.72;2.00;;;;;;;1.88;89.17;101242.41;6280278;28;20478;-72
2021/12/18 06:10:44;;;;;;;5.75;1.70;;;;;;;1.87;89.74;101240.66;6298068;28;20052;-72
2021/12/18 06:13:47;;;;;;;6.07;3.50;;;;;;;1.98;88.97;101238.91;6298124;28;20059;-72
2021/12/18 06:16:48;;;;;;;9.85;4.13;;;;;;;1.89;89.13;101254.38;6297971;28;20101;-72
2021/12/18 06:19:49;;;;;;;14.40;7.57;;;;;;;1.94;89.22;101265.53;6280020;28;20048;-72
2021/12/18 06:22:50;;;;;;;3.72;2.50;;;;;;;1.90;89.40;101281.84;6296429;28;20127;-72
2021/12/18 06:25:51;;;;;;;24.17;10.48;;;;;;;1.87;88.68;101275.84;6296339;28;20460;-72
2021/12/18 06:28:51;;;;;;;4.97;1.45;;;;;;;1.80;87.98;101275.03;6272987;28;20391;-72
2021/12/18 06:31:52;;;;;;;6.93;2.40;;;;;;;2.16;86.50;101267.94;6271398;28;20049;-73
2021/12/18 06:34:53;;;;;;;2.78;1.20;;;;;;;2.05;85.86;101277.47;6272743;28;20442;-72
2021/12/18 06:37:54;;;;;;;2.35;1.65;;;;;;;2.18;84.71;101271.38;6270803;28;20049;-72
2021/12/18 06:40:54;;;;;;;3.85;1.95;;;;;;;2.27;83.94;101268.75;6271694;28;20049;-72
2021/12/18 06:43:56;;;;;;;3.67;1.80;;;;;;;2.30;84.04;101273.00;6272077;28;20056;-73
2021/12/18 06:46:57;;;;;;;3.13;1.67;;;;;;;2.30;84.20;101268.72;6272531;28;20513;-72
2021/12/18 06:49:58;;;;;;;3.70;1.53;;;;;;;2.31;83.73;101272.16;6271246;28;20057;-73
2021/12/18 06:52:59;;;;;;;4.82;2.10;;;;;;;2.44;82.76;101289.22;6271206;28;20098;-72
2021/12/18 06:56:00;;;;;;;6.70;2.13;;;;;;;2.46;83.25;101276.34;6254550;28;20503;-72
2021/12/18 06:59:01;;;;;;;6.15;2.40;;;;;;;2.55;83.29;101302.00;6271046;28;20124;-72
2021/12/18 07:02:02;;;;;;;2.60;1.63;;;;;;;2.42;84.47;101296.09;6270969;28;20045;-72
2021/12/18 07:05:03;;;;;;;4.00;1.73;;;;;;;2.57;83.82;101303.72;6283641;28;20041;-72
2021/12/18 07:08:04;;;;;;;2.70;1.70;;;;;;;2.59;83.68;101311.44;6296849;28;20044;-73
2021/12/18 07:11:05;;;;;;;9.50;1.65;;;;;;;2.63;83.88;101313.09;6295786;28;20060;-72
2021/12/18 07:14:06;;;;;;;3.50;1.60;;;;;;;2.59;84.39;101322.63;6279220;28;20411;-72
2021/12/18 07:17:07;;;;;;;4.68;2.15;;;;;;;2.76;83.86;101324.16;6296977;28;20509;-72
2021/12/18 07:20:09;;;;;;;3.50;2.20;;;;;;;2.78;83.98;101343.06;6299995;28;20040;-72
2021/12/18 07:23:10;;;;;;;4.65;2.20;;;;;;;2.76;84.23;101343.09;6300813;28;20087;-72
2021/12/18 07:26:12;;;;;;;3.40;2.20;;;;;;;2.89;83.97;101343.84;6300731;28;20487;-72
2021/12/18 07:29:13;;;;;;;3.22;2.03;;;;;;;2.84;83.74;101361.03;6301959;28;20048;-72
2021/12/18 07:32:14;;;;;;;2.22;1.60;;;;;;;3.06;82.90;101368.63;6300686;28;20048;-71
2021/12/18 07:35:14;;;;;;;7.50;2.35;;;;;;;2.96;83.20;101370.41;6301940;28;20052;-72
2021/12/18 07:38:16;;;;;;;3.70;2.22;;;;;;;3.11;82.51;101375.44;6300365;28;20471;-72
2021/12/18 07:41:16;;;;;;;3.10;1.83;;;;;;;3.16;82.05;101365.94;6300128;28;20040;-72
2021/12/18 07:44:17;;;;;;;5.53;2.42;;;;;;;3.28;81.54;101377.88;6299203;28;20040;-72
2021/12/18 07:47:18;;;;;;;7.47;2.60;;;;;;;3.24;81.54;101373.59;6278749;28;20141;-72
2021/12/18 07:50:20;;;;;;;5.47;2.50;;;;;;;3.31;81.12;101367.50;6280202;28;20056;-73
2021/12/18 07:53:23;;;;;;;3.40;2.05;;;;;;;3.33;80.75;101362.34;6297067;28;20058;-73
2021/12/18 07:56:24;;;;;;;5.00;2.20;;;;;;;3.50;80.15;101372.47;6299370;28;20041;-73
2021/12/18 07:59:25;;;;;;;3.45;2.40;;;;;;;3.57;80.02;101379.28;6289420;28;20122;-72
2021/12/18 08:02:26;;;;;;;4.75;2.83;;;;;;;3.82;79.04;101379.88;6257481;28;20560;-72
2021/12/18 08:05:27;;;;;;;6.22;2.40;;;;;;;3.78;78.17;101397.09;6307371;28;20064;-72
2021/12/18 08:08:28;;;;;;;4.78;2.30;;;;;;;3.66;78.27;101405.00;6273896;28;20404;-72
2021/12/18 08:11:29;;;;;;;4.82;2.17;;;;;;;3.80;78.38;101400.53;6275170;28;20479;-72
2021/12/18 08:14:32;;;;;;;5.47;2.58;;;;;;;3.88;78.70;101392.69;6274162;28;20068;-72
2021/12/18 08:17:32;;;;;;;;;;;;;;;3.91;78.34;101405.59;6300069;28;20142;-72
2021/12/18 08:20:34;;;;;;;6.03;2.17;;;;;;;4.01;77.46;101414.06;6299949;28;19942;-72
2021/12/18 08:23:35;;;;;;;7.28;2.55;;;;;;;3.81;78.64;101422.06;6299781;28;20052;-72
2021/12/18 08:26:36;;;;;;;8.57;3.25;;;;;;;3.96;77.72;101419.28;6278407;28;20053;-72
2021/12/18 08:29:37;;;;;;;4.10;2.80;;;;;;;4.15;79.02;101429.41;6273787;28;20495;-71
2021/12/18 08:32:40;;;;;;;5.15;2.95;;;;;;;4.22;77.23;101431.00;6274630;28;20407;-70
2021/12/18 08:35:41;;;;;;;6.55;2.80;;;;;;;3.85;79.33;101436.66;6273514;28;20042;-71
2021/12/18 08:38:42;;;;;;;6.43;3.35;;;;;;;4.02;78.31;101437.28;6240665;28;20071;-71
2021/12/18 08:41:45;;;;;;;6.57;3.20;;;;;;;3.87;79.96;101440.06;6275081;28;20126;-71
2021/12/18 08:44:46;;;;;;;7.72;2.55;;;;;;;3.69;80.42;101448.84;6285495;28;20146;-73
2021/12/18 08:47:46;;;;;;;5.38;2.50;;;;;;;4.11;77.71;101432.91;6273321;28;20043;-73
2021/12/18 08:50:48;;;;;;;5.10;2.53;;;;;;;4.37;75.93;101422.22;6290434;28;20054;-70
2021/12/18 08:53:49;;;;;;;4.45;2.30;;;;;;;4.56;75.53;101423.69;6299091;28;20036;-71
2021/12/18 08:56:50;;;;;;;3.88;2.17;;;;;;;4.53;74.81;101422.84;6274201;28;20071;-70
2021/12/18 08:59:50;;;;;;;4.45;2.80;;;;;;;4.57;74.52;101424.53;6272772;28;20056;-70
2021/12/18 09:02:54;;;;;;;5.18;2.35;;;;;;;4.55;73.90;101416.81;6256301;28;20033;-71
2021/12/18 09:05:55;;;;;;;5.97;2.40;;;;;;;4.54;74.93;101420.25;6274083;28;20095;-72
2021/12/18 09:08:56;;;;;;;8.63;2.95;;;;;;;4.69;75.55;101413.16;6277871;28;20040;-71
2021/12/18 09:11:57;;;;;;;3.63;2.50;;;;;;;4.52;76.58;101408.25;6290715;28;20045;-71
2021/12/18 09:14:58;;;;;;;4.32;2.38;;;;;;;4.50;77.18;101410.00;6284343;28;20075;-72
2021/12/18 09:17:59;;;;;;;6.53;3.03;;;;;;;5.01;74.96;101415.25;6281458;28;20048;-72
2021/12/18 09:21:00;;;;;;;8.35;2.80;;;;;;;4.93;74.22;101411.94;6298149;28;20043;-71
2021/12/18 09:24:01;;;;;;;5.68;2.67;;;;;;;5.27;73.62;101395.84;6276692;28;20045;-71
2021/12/18 09:27:02;;;;;;;5.55;2.65;;;;;;;5.28;73.13;101406.16;6273511;28;20041;-71
2021/12/18 09:30:05;;;;;;;6.65;2.63;;;;;;;5.07;73.56;101406.53;6279094;28;20533;-72
2021/12/18 09:33:11;;;;;;;4.88;2.15;;;;;;;4.66;73.75;101401.13;6296873;28;20066;-72
2021/12/18 09:36:12;;;;;;;4.45;2.17;;;;;;;5.22;71.31;101399.34;6298219;28;20087;-71
2021/12/18 09:39:14;;;;;;;4.32;2.17;;;;;;;5.40;68.17;101402.50;6297952;28;20475;-71
2021/12/18 09:42:15;;;;;;;4.20;1.75;;;;;;;5.24;67.81;101407.94;6291269;28;20060;-71
2021/12/18 09:45:16;;;;;;;3.92;1.70;;;;;;;5.47;65.70;101404.09;6271677;28;20040;-71
2021/12/18 09:48:18;;;;;;;3.47;1.75;;;;;;;5.51;64.84;101408.34;6291426;28;20086;-71
2021/12/18 09:51:24;;;;;;;4.80;2.03;;;;;;;5.63;66.41;101413.28;6297671;28;20106;-71
2021/12/18 09:54:25;;;;;;;4.22;1.65;;;;;;;5.64;65.70;101389.13;6296287;28;20047;-71
2021/12/18 09:57:26;;;;;;;2.17;1.58;;;;;;;6.00;64.59;101391.03;6296339;28;20041;-71
2021/12/18 10:00:27;;;;;;;3.85;1.67;;;;;;;5.72;62.69;101386.34;6297445;28;20082;-71
2021/12/18 10:03:51;;;;;;;2.85;1.58;;;;;;;5.82;64.23;101377.50;6297389;28;20076;-71
2021/12/18 10:06:52;;;;;;;5.53;2.30;;;;;;;5.81;63.46;101378.41;6297436;28;20040;-72
2021/12/18 10:09:57;;;;;;;2.88;1.60;;;;;;;5.68;62.66;101376.94;6296116;28;20036;-71
2021/12/18 10:13:04;;;;;;;5.57;2.03;;;;;;;5.44;65.04;101378.28;6297124;28;20046;-71
2021/12/18 10:16:12;;;;;;;3.20;1.60;;;;;;;5.50;64.07;101385.94;6295974;28;20522;-71
2021/12/18 10:19:39;;;;;;;3.25;1.30;;;;;;;5.13;66.55;101388.31;6295824;28;20041;-71
2021/12/18 10:22:47;;;;;;;5.60;1.83;;;;;;;5.47;66.36;101385.13;6295836;28;20041;-72
2021/12/18 10:25:48;;;;;;;3.47;1.83;;;;;;;5.52;65.79;101371.22;6296880;28;20040;-71
2021/12/18 10:28:48;;;;;;;3.63;1.65;;;;;;;5.64;64.93;101368.41;6278992;28;20510;-71
2021/12/18 10:31:50;;;;;;;2.95;1.95;;;;;;;5.62;66.38;101366.69;6291818;22;20063;-77
2021/12/18 10:34:56;;;;;;;3.10;1.92;;;;;;;5.74;65.97;101361.28;6272199;28;20053;-78
2021/12/18 10:37:57;;;;;;;4.68;2.30;;;;;;;5.68;65.67;101368.31;6272737;28;20049;-83
2021/12/18 10:40:58;;;;;;;5.28;1.63;;;;;;;5.14;66.97;101377.09;6271778;28;20557;-75
2021/12/18 10:44:13;;;;;;;5.38;1.70;;;;;;;5.22;68.52;101363.13;6271829;28;20051;-76
2021/12/18 10:47:14;;;;;;;5.30;2.42;;;;;;;5.12;68.58;101371.09;6272801;28;20507;-76
2021/12/18 10:50:16;;;;;;;6.32;1.80;;;;;;;5.09;68.16;101366.81;6272601;28;20052;-76
2021/12/18 10:53:27;;;;;;;3.70;2.10;;;;;;;5.18;68.72;101366.66;6270122;28;20463;-76
2021/12/18 10:56:51;;;;;;;4.57;1.90;;;;;;;5.40;68.01;101361.09;6270210;28;20037;-76
2021/12/18 10:59:55;;;;;;;4.63;1.80;;;;;;;5.35;67.98;101357.72;6247942;28;20046;-82
2021/12/18 11:02:55;;;;;;;4.40;1.40;;;;;;;5.16;66.96;101350.28;6230782;28;20045;-76
2021/12/18 11:06:20;;;;;;;3.60;1.65;;;;;;;5.16;66.09;101365.81;6230214;28;20095;-76
2021/12/18 11:09:32;;;;;;;6.30;2.38;;;;;;;5.35;67.33;101340.44;6248139;28;20055;-83
2021/12/18 11:15:52;;;;;;;6.78;2.13;;;;;;;5.07;66.76;101337.53;6247840;28;20045;-76
2021/12/18 11:18:55;;;;;;;3.63;1.83;;;;;;;5.11;66.45;101339.19;6246270;28;20041;-77
2021/12/18 11:22:11;;;;;;;5.15;2.35;;;;;;;5.33;64.33;101344.81;6247632;28;20125;-81
2021/12/18 11:25:12;;;;;;;2.92;1.92;;;;;;;5.31;64.52;101354.34;6247700;28;20511;-76
2021/12/18 11:28:15;;;;;;;7.22;1.70;;;;;;;5.07;63.81;101347.03;6247873;28;20072;-77
2021/12/18 11:31:17;;;;;;;4.57;2.00;;;;;;;5.23;63.86;101351.91;6246210;28;20100;-76
2021/12/18 11:34:18;;;;;;;5.70;2.03;;;;;;;5.33;64.14;101341.38;6247584;28;20044;-77
2021/12/18 11:37:21;;;;;;;3.58;1.80;;;;;;;5.40;61.84;101330.88;6246099;28;20049;-78
2021/12/18 11:40:25;;;;;;;5.95;2.00;;;;;;;5.48;62.42;101329.88;6246185;28;20403;-81
2021/12/18 11:43:36;;;;;;;4.80;2.20;;;;;;;5.32;61.84;101335.34;6247634;28;20045;-81
2021/12/18 11:46:37;;;;;;;6.18;2.20;;;;;;;5.29;62.98;101334.53;6246053;28;20068;-80
2021/12/18 11:49:43;;;;;;;3.10;1.63;;;;;;;5.12;62.94;101347.78;6245988;28;20046;-80
2021/12/18 11:53:14;;;;;;;6.70;1.70;;;;;;;5.27;62.27;101350.09;6246436;28;20457;-80
2021/12/18 11:56:15;;;;;;;2.55;1.20;;;;;;;5.16;61.42;101350.28;6246429;28;20046;-76
2021/12/18 11:59:49;;;;;;;7.68;2.60;;;;;;;5.32;61.25;101353.47;6247172;28;20052;-77
2021/12/18 12:02:55;;;;;;;6.70;1.92;;;;;;;5.35;61.25;101348.22;6250830;28;20057;-76
2021/12/18 12:05:58;;;;;;;5.07;1.88;;;;;;;5.43;63.50;101354.09;6250380;28;20503;-82
2021/12/18 12:09:54;;;;;;;2.47;1.70;;;;;;;5.50;65.47;101354.88;6234844;28;20061;-82
2021/12/18 12:12:56;;;;;;;6.03;1.80;;;;;;;5.23;63.65;101349.31;6251660;28;20057;-77
2021/12/18 12:15:57;;;;;;;3.88;2.08;;;;;;;5.19;64.59;101349.41;6250205;28;20484;-77
2021/12/18 12:19:07;;;;;;;4.85;1.90;;;;;;;5.10;62.37;101342.63;6217379;28;20041;-76
2021/12/18 12:22:30;;;;;;;4.80;2.08;;;;;;;5.23;64.20;101343.28;6233999;28;20048;-76
2021/12/18 12:25:36;;;;;;;4.30;2.07;;;;;;;5.23;63.31;101353.66;6266465;28;20102;-76
2021/12/18 12:28:51;;;;;;;6.10;2.08;;;;;;;5.20;64.26;101341.59;6275539;28;20488;-76
2021/12/18 12:31:57;;;;;;;5.15;2.30;;;;;;;4.82;64.26;101353.47;6274252;28;20085;-82
2021/12/18 12:35:13;;;;;;;3.75;1.70;;;;;;;5.05;62.36;101341.88;6275465;28;20037;-82
2021/12/18 12:38:34;;;;;;;5.88;2.50;;;;;;;5.24;63.66;101343.25;6274425;28;20041;-77
2021/12/18 12:41:40;;;;;;;4.43;2.15;;;;;;;5.22;62.32;101332.06;6275576;28;20033;-78
2021/12/18 12:44:51;;;;;;;3.13;1.80;;;;;;;5.07;62.52;101324.59;6274454;28;20439;-83
2021/12/18 12:47:55;;;;;;;7.35;2.03;;;;;;;4.85;63.48;101317.19;6275594;28;20458;-82
2021/12/18 12:51:00;;;;;;;6.45;2.15;;;;;;;4.74;63.61;101297.59;6274286;28;20509;-81
2021/12/18 12:54:02;;;;;;;6.05;2.70;;;;;;;4.96;63.63;101304.09;6273971;28;20049;-84
2021/12/18 12:57:37;;;;;;;4.75;2.50;;;;;;;4.88;64.62;101307.69;6257829;28;20033;-75
2021/12/18 13:00:40;;;;;;;8.18;2.30;;;;;;;4.88;64.35;101311.16;6252651;28;20049;-85
2021/12/18 13:03:45;;;;;;;6.32;2.20;;;;;;;4.88;65.09;101311.16;6274897;28;20045;-84
2021/12/18 13:06:46;;;;;;;4.38;2.15;;;;;;;5.02;65.44;101306.59;6254373;28;20551;-84
2021/12/18 13:09:47;;;;;;;3.85;2.10;;;;;;;5.04;65.30;101309.13;6232716;28;20095;-83
2021/12/18 13:12:55;;;;;;;5.68;2.20;;;;;;;4.88;66.22;101311.16;6233016;28;20042;-82
2021/12/18 13:15:58;;;;;;;7.18;3.05;;;;;;;4.83;67.55;101307.78;6252922;28;20033;-81
2021/12/18 13:18:59;;;;;;;4.65;2.70;;;;;;;4.93;67.81;101308.47;6248997;28;20408;-77
2021/12/18 13:22:11;;;;;;;5.20;2.73;;;;;;;5.05;68.22;101303.06;6250233;28;20400;-77
2021/12/18 13:25:14;;;;;;;7.63;3.15;;;;;;;4.99;68.54;101306.63;6250095;28;20048;-77
2021/12/18 13:28:16;;;;;;;8.07;2.75;;;;;;;4.96;69.06;101311.88;6248490;28;20045;-81
2021/12/18 13:31:18;;;;;;;7.07;3.75;;;;;;;4.92;69.42;101315.38;6247840;28;20057;-81
2021/12/18 13:34:21;;;;;;;6.80;3.58;;;;;;;4.77;70.66;101313.88;6248063;28;20484;-77
2021/12/18 13:37:22;;;;;;;9.48;2.65;;;;;;;4.87;70.52;101309.41;6249512;28;20045;-80
2021/12/18 13:40:24;;;;;;;8.57;3.50;;;;;;;4.95;70.23;101302.38;6247790;28;20052;-77
2021/12/18 13:43:26;;;;;;;8.33;4.90;;;;;;;4.92;70.22;101299.00;6231685;28;20049;-79
2021/12/18 13:46:31;;;;;;;10.70;3.97;;;;;;;4.92;70.09;101302.44;6248274;28;20073;-77
2021/12/18 13:49:32;;;;;;;10.93;3.97;;;;;;;4.99;71.51;101314.38;6248535;28;20369;-76
2021/12/18 13:53:05;;;;;;;7.70;3.95;;;;;;;4.89;70.83;101318.00;6248978;28;20094;-77
2021/12/18 13:56:07;;;;;;;5.20;3.25;;;;;;;5.04;70.31;101301.34;6248113;28;20084;-77
2021/12/18 13:59:26;;;;;;;6.43;3.30;;;;;;;4.76;71.45;101298.44;6247197;28;20048;-80
2021/12/18 14:02:27;;;;;;;7.45;3.10;;;;;;;4.96;70.92;101287.72;6247837;28;20045;-77
2021/12/18 14:05:28;;;;;;;10.07;3.40;;;;;;;5.02;70.99;101283.31;6248161;28;20056;-77
2021/12/18 14:08:30;;;;;;;8.82;4.65;;;;;;;4.94;71.49;101279.13;6247366;28;20113;-77
2021/12/18 14:11:43;;;;;;;10.90;4.93;;;;;;;4.98;71.60;101275.59;6231580;28;20053;-80
2021/12/18 14:14:48;;;;;;;12.02;5.20;;;;;;;4.96;71.11;101282.53;6248714;28;20042;-80
2021/12/18 14:17:49;;;;;;;27.17;7.28;;;;;;;4.91;70.27;101282.63;6248595;28;20514;-80
2021/12/18 14:20:49;;;;;;;14.13;5.82;;;;;;;4.83;70.21;101267.22;6247457;28;20099;-76
2021/12/18 14:23:58;;;;;;;13.45;5.38;;;;;;;4.82;71.32;101281.06;6247272;28;20041;-82
2021/12/18 14:27:02;;;;;;;16.08;5.03;;;;;;;4.71;71.64;101266.59;6247186;28;20496;-79
2021/12/18 14:30:03;;;;;;;27.00;6.45;;;;;;;4.62;72.61;101262.44;6248206;28;20497;-79
2021/12/18 14:33:14;;;;;;;24.10;6.40;;;;;;;4.45;72.81;101242.06;6247248;28;20048;-77
2021/12/18 14:36:15;;;;;;;18.77;6.45;;;;;;;4.58;74.41;101246.13;6248106;28;20041;-76
2021/12/18 14:39:17;;;;;;;14.27;6.95;;;;;;;4.62;72.42;101257.28;6246841;28;20056;-79
2021/12/18 14:42:28;;;;;;;17.05;4.43;;;;;;;4.56;72.29;101257.38;6248128;28;20503;-80
2021/12/18 14:45:31;;;;;;;9.93;4.63;;;;;;;4.61;72.08;101263.31;6246739;28;20048;-80
2021/12/18 14:48:36;;;;;;;9.25;4.90;;;;;;;4.65;72.03;101262.38;6246737;28;20042;-79
2021/12/18 14:51:37;;;;;;;12.52;6.60;;;;;;;4.62;73.87;101258.13;6246629;28;20092;-80
2021/12/18 14:54:51;;;;;;;38.07;18.37;;;;;;;4.57;73.59;101261.66;6247787;28;20041;-80
2021/12/18 14:57:57;;;;;;;30.65;15.75;;;;;;;4.56;73.67;101262.56;6247238;28;20373;-77
2021/12/18 15:01:02;;;;;;;46.03;20.95;;;;;;;4.48;74.25;101262.69;6265851;28;20041;-76
2021/12/18 15:04:05;;;;;;;38.55;16.60;;;;;;;4.32;75.90;101261.22;6270561;28;20045;-77
2021/12/18 15:07:25;;;;;;;38.13;14.88;;;;;;;4.32;77.08;101264.66;6254124;28;20075;-78
2021/12/18 15:10:27;;;;;;;38.30;18.95;;;;;;;4.26;77.16;101262.16;6254814;28;20049;-77